Lafayette, CO

11:17 PM MST on December 17, 2014 (GMT -0700)
Erie Municipal Airport | Change Station
CLOSE
Current Station
Airport
Location: Erie,
Elevation: 5128 ft
Nearby Weather Stations

Elev 5128 ft 40.01 °N, 105.05 °W | Updated 22 minutes ago

Partly Cloudy
Partly Cloudy
24 °F
Feels Like 24 °F
N
0
Wind Variable Wind from North
Gusts 2 mph

Today
High -- | Low -- °F
--% Chance of Precip.
Yesterday
High -- | Low -- °F
Precip. -- in
7:16 AM 4:36 PM
Waning Crescent, 17% visible
Pressure 29.98 in
Visibility 7.0 miles
Clouds
Dew Point 22 °F
Humidity 95%
Rainfall 0.00 in
Snow Depth Not available.
UV Not available.
Pollen .10 out of 12
Air Quality Not available.
Flu Activity Not available.
METAR KEIK 180555Z AUTO 00000KT 7SM M05/M05 A2998 RMK AO2 T10471054 10010 21047 400691082

More Conditions Fewer Conditions

Pressure 29.98 in
Visibility 7.0 miles
Clouds
Dew Point 22 °F
Humidity 95%
Rainfall 0.00 in
Snow Depth Not available.
UV Not available.
Pollen .10 out of 12
Air Quality Not available.
Flu Activity Not available.
METAR KEIK 180555Z AUTO 00000KT 7SM M05/M05 A2998 RMK AO2 T10471054 10010 21047 400691082

More Conditions Fewer Conditions

10-Day Weather Forecast

Almanac

Astronomy

Dec. 17, 2014 Rise Set
Actual Time
Civil Twilight
Nautical Twilight
Astronomical Twilight
Moon
Length of Visible Light
Length of Day
Tomorrow will be .
, % of the Moon is Illuminated

Today's Extremes

State Highs State Lows

Community

WunderPhotos

Upload Photos

1,778,896 photos uploaded!

WunderBlogs® & News

Nearby

Air Quality

  Air Quality AQ Index Pollutant
Not available.

Snow Depth

Station Depth Elevation

Earthquake Activity

City Distance Mag. Time & Date
Minimum magnitude displayed is 2.5.

Coastal Water Temperatures

Place Temperature

Nearby Weather Stations